Aeroporto :
LOGIN :

Iscrizione | Disclaimer

   EN    FR    IT 

 










Sommario :    VFR   VFR Marginale   IFR   IFR Intensivo   IFR Molto Intensivo
Visibilità : 
Base nubi : 
>= 8 km
>= 3000ft
5 / 8 km
1000 / 3000 ft
1500m / 5 km
500 / 1000 ft
800 / 1500m
200 / 500 ft
< 800m
< 200 ft
Simboli :   Temporali  Nebbia  Neve Forte  Precipitazioni Forti  Vento > 20 kt
SIGMETs :   Varie  Temporali  Ghiacco  Turbolenza  Onda orograficha  Ceneri Vulcaniche







- Altitudine del aeroporto : 112 ft
- Codice IATA : SVQ


LEZL - Sevilla San Pablo

ULTIMO METAR :
  • 181600Z 07007KT 360V140 CAVOK 37/11 Q1011 NOSIG

METARs OBSOLETI :
  • 181530Z 06007KT 360V150 CAVOK 38/12 Q1012 NOSIG
  • 181500Z 08006KT CAVOK 37/12 Q1012 NOSIG
  • 181430Z 06005KT 020V110 CAVOK 37/11 Q1012 NOSIG
  • 181400Z 12007KT 060V200 CAVOK 37/12 Q1013 NOSIG
  • 181330Z 09003KT CAVOK 37/13 Q1013 NOSIG

TAF TAF LEZL
Valido dal 18 a 15 ore il 19 a 15 ore UTC


181400Z 1815/1915 06007KT CAVOK TX38/1815Z TN22/1905Z
PROB30
TEMPO 1819/1822 22010KT
Nessun NOTAM noto per questo aeroporto.
1 SIGMET conosciuto per la FIR Madrid (LECM) :
 
Temporali affogati
LECM SIGMET 4 VALID 181600/181800 LEVA
LECM MADRID FIR/UIR EMBD TS FCST E OF LINE N4020 W00230 - N3703 W00342 TOP FL420 STNR NC=



MetMap, La meteo Aeronautica in un colpo d'occhio ! - Copyright ORBIFLY Dicembre 2007 - Disclaimer

ORBIFLY MET'MAP TEAM :

Programmazione e sviluppo : Alexandra Zaïnal
Concezione e sviluppo : Baudouin d'Aumeries
Co-Programmazione e sviluppo : Marc-Olivier Méhu
Supporto tecnico e logistico : Manuel Goepfert
Aiuto per la traduzione : Arnaldo La Scala

Contatto : metmap@orbifly.com




FONTI E CREDITI :

   NOAA